F/V La Mordoree — FGIA — position and weather

sailwx.info

Track history (hours):
 
Tides and Currents Weather Stations Pressure Air Temp Water Temp Dewpoint Dewpoint Depression Visibility Wind Speed Wind Dir Waves Ship Positions

F/V La Mordoree

Last reported at 2018-Jan-21 09:06 UTC. Time now 2018-Jan-21 14:46 UTC.
Position N 47°08' W 003°06'.

Length 18 m.

Type: Other ship. MMSI: 228248000.

Date/timePositionNaut miles runAvg speedWind from/ knotsBaromVisibWave heightAir tempDewpointWater temp
2018-Jan-21 09:06N 47°08' W 003°06'2 2.4
2018-Jan-21 08:26N 47°09' W 003°04'1 2.4
2018-Jan-21 07:51N 47°10' W 003°03'5 2.4
2018-Jan-21 05:40N 47°12' W 002°56'2 5.5
2018-Jan-21 05:18N 47°13' W 002°53'3 8.0
2018-Jan-21 04:58N 47°14' W 002°50'4 7.7
2018-Jan-21 04:30N 47°16' W 002°45'4 8.0
2018-Jan-21 03:59N 47°18' W 002°40'4 8.1
2018-Jan-21 03:30N 47°20' W 002°35'3 0.1
2018-Jan-19 20:34N 47°21' W 002°31'26 2.1
2018-Jan-19 08:02N 47°09' W 003°05'0 2.5
2018-Jan-19 07:52N 47°09' W 003°04'1 2.5
2018-Jan-19 07:21N 47°10' W 003°02'2 2.4
2018-Jan-19 06:31N 47°11' W 002°59'2 2.5
2018-Jan-19 05:49N 47°11' W 002°57'1 2.8
2018-Jan-19 05:29N 47°12' W 002°56'4 7.5
2018-Jan-19 05:00N 47°14' W 002°52'4 8.6
2018-Jan-19 04:31N 47°16' W 002°46'4 8.5
2018-Jan-19 04:00N 47°18' W 002°41'4 8.6
2018-Jan-19 03:30N 47°20' W 002°35'  
2018-Jan-11 19:02N 47°21' W 002°31'0 0.0
2018-Jan-11 18:49N 47°21' W 002°31'7 7.7
2018-Jan-11 17:56N 47°18' W 002°40'  
Track history (hours):
 
Tides and Currents Weather Stations Pressure Air Temp Water Temp Dewpoint Dewpoint Depression Visibility Wind Speed Wind Dir Waves Ship Positions

F/V La Mordoree

Last reported at 2018-Jan-21 09:06 UTC. Time now 2018-Jan-21 14:46 UTC.
Position N 47°08' W 003°06'.

Length 18 m.

Type: Other ship. MMSI: 228248000.

Date/timePositionNaut miles runAvg speedWind from/ knotsBaromVisibWave heightAir tempDewpointWater temp
2018-Jan-21 09:06N 47°08' W 003°06'2 2.4
2018-Jan-21 08:26N 47°09' W 003°04'1 2.4
2018-Jan-21 07:51N 47°10' W 003°03'5 2.4
2018-Jan-21 05:40N 47°12' W 002°56'2 5.5
2018-Jan-21 05:18N 47°13' W 002°53'3 8.0
2018-Jan-21 04:58N 47°14' W 002°50'4 7.7
2018-Jan-21 04:30N 47°16' W 002°45'4 8.0
2018-Jan-21 03:59N 47°18' W 002°40'4 8.1
2018-Jan-21 03:30N 47°20' W 002°35'3 0.1
2018-Jan-19 20:34N 47°21' W 002°31'26 2.1
2018-Jan-19 08:02N 47°09' W 003°05'0 2.5
2018-Jan-19 07:52N 47°09' W 003°04'1 2.5
2018-Jan-19 07:21N 47°10' W 003°02'2 2.4
2018-Jan-19 06:31N 47°11' W 002°59'2 2.5
2018-Jan-19 05:49N 47°11' W 002°57'1 2.8
2018-Jan-19 05:29N 47°12' W 002°56'4 7.5
2018-Jan-19 05:00N 47°14' W 002°52'4 8.6
2018-Jan-19 04:31N 47°16' W 002°46'4 8.5
2018-Jan-19 04:00N 47°18' W 002°41'4 8.6
2018-Jan-19 03:30N 47°20' W 002°35'  
2018-Jan-11 19:02N 47°21' W 002°31'0 0.0
2018-Jan-11 18:49N 47°21' W 002°31'7 7.7
2018-Jan-11 17:56N 47°18' W 002°40'  

Dump ship's entire track history